sensor_id;sensor_type;location;lat;lon;timestamp;temperature;humidity
38746;DHT22;24488;0.000;0.000;2022-12-07T00:01:39;22.70;67.80
38746;DHT22;24488;0.000;0.000;2022-12-07T00:04:06;22.70;67.90
38746;DHT22;24488;0.000;0.000;2022-12-07T00:08:59;22.50;67.10
38746;DHT22;24488;0.000;0.000;2022-12-07T00:11:24;22.70;68.00
38746;DHT22;24488;0.000;0.000;2022-12-07T00:13:51;23.10;68.30
38746;DHT22;24488;0.000;0.000;2022-12-07T00:16:18;22.40;68.00
38746;DHT22;24488;0.000;0.000;2022-12-07T00:18:45;22.70;68.00
38746;DHT22;24488;0.000;0.000;2022-12-07T00:21:15;22.60;68.00
38746;DHT22;24488;0.000;0.000;2022-12-07T00:23:45;22.60;67.70
38746;DHT22;24488;0.000;0.000;2022-12-07T00:26:12;23.00;68.10
38746;DHT22;24488;0.000;0.000;2022-12-07T00:28:46;22.70;67.90
38746;DHT22;24488;0.000;0.000;2022-12-07T00:31:16;22.60;67.80
38746;DHT22;24488;0.000;0.000;2022-12-07T00:33:43;22.50;68.00
38746;DHT22;24488;0.000;0.000;2022-12-07T00:36:09;22.60;67.90
38746;DHT22;24488;0.000;0.000;2022-12-07T00:38:37;22.50;67.80
38746;DHT22;24488;0.000;0.000;2022-12-07T00:41:04;22.70;67.90
38746;DHT22;24488;0.000;0.000;2022-12-07T00:43:33;22.70;67.80
38746;DHT22;24488;0.000;0.000;2022-12-07T00:45:58;22.70;68.00
38746;DHT22;24488;0.000;0.000;2022-12-07T00:48:24;22.60;68.10
38746;DHT22;24488;0.000;0.000;2022-12-07T00:50:50;22.60;67.90
38746;DHT22;24488;0.000;0.000;2022-12-07T00:53:16;22.50;68.00
38746;DHT22;24488;0.000;0.000;2022-12-07T00:55:42;22.70;68.10
38746;DHT22;24488;0.000;0.000;2022-12-07T00:58:08;22.60;67.90
38746;DHT22;24488;0.000;0.000;2022-12-07T01:00:34;23.70;68.80
38746;DHT22;24488;0.000;0.000;2022-12-07T01:03:01;22.70;67.90
38746;DHT22;24488;0.000;0.000;2022-12-07T01:05:26;22.70;68.10
38746;DHT22;24488;0.000;0.000;2022-12-07T01:07:52;22.70;68.00
38746;DHT22;24488;0.000;0.000;2022-12-07T01:12:43;22.50;67.20
38746;DHT22;24488;0.000;0.000;2022-12-07T01:15:09;22.50;68.00
38746;DHT22;24488;0.000;0.000;2022-12-07T01:17:35;22.50;68.00
38746;DHT22;24488;0.000;0.000;2022-12-07T01:20:01;22.70;68.10
38746;DHT22;24488;0.000;0.000;2022-12-07T01:22:26;22.70;67.90
38746;DHT22;24488;0.000;0.000;2022-12-07T01:24:52;22.50;67.30
38746;DHT22;24488;0.000;0.000;2022-12-07T01:27:18;22.50;67.90
38746;DHT22;24488;0.000;0.000;2022-12-07T01:29:43;21.30;67.10
38746;DHT22;24488;0.000;0.000;2022-12-07T01:32:09;22.60;68.10
38746;DHT22;24488;0.000;0.000;2022-12-07T01:37:01;22.50;67.20
38746;DHT22;24488;0.000;0.000;2022-12-07T01:39:27;22.60;68.10
38746;DHT22;24488;0.000;0.000;2022-12-07T01:41:52;22.60;68.00
38746;DHT22;24488;0.000;0.000;2022-12-07T01:46:47;22.50;67.70
38746;DHT22;24488;0.000;0.000;2022-12-07T01:51:48;22.60;67.80
38746;DHT22;24488;0.000;0.000;2022-12-07T01:54:14;22.70;67.90
38746;DHT22;24488;0.000;0.000;2022-12-07T01:56:42;22.60;67.90
38746;DHT22;24488;0.000;0.000;2022-12-07T01:59:12;22.70;67.90
38746;DHT22;24488;0.000;0.000;2022-12-07T02:01:38;22.50;68.00
38746;DHT22;24488;0.000;0.000;2022-12-07T02:04:04;22.70;68.00
38746;DHT22;24488;0.000;0.000;2022-12-07T02:06:29;22.50;67.90
38746;DHT22;24488;0.000;0.000;2022-12-07T02:08:55;22.60;68.10
38746;DHT22;24488;0.000;0.000;2022-12-07T02:11:21;22.60;68.10
38746;DHT22;24488;0.000;0.000;2022-12-07T02:13:47;22.60;68.20
38746;DHT22;24488;0.000;0.000;2022-12-07T02:16:25;22.80;68.40
38746;DHT22;24488;0.000;0.000;2022-12-07T02:35:05;22.60;67.90
38746;DHT22;24488;0.000;0.000;2022-12-07T02:40:19;22.50;67.80
38746;DHT22;24488;0.000;0.000;2022-12-07T02:43:54;22.50;68.10
38746;DHT22;24488;0.000;0.000;2022-12-07T02:45:50;22.50;67.90
38746;DHT22;24488;0.000;0.000;2022-12-07T02:48:17;22.60;68.00
38746;DHT22;24488;0.000;0.000;2022-12-07T02:50:51;22.50;68.00
38746;DHT22;24488;0.000;0.000;2022-12-07T02:56:00;22.50;67.70
38746;DHT22;24488;0.000;0.000;2022-12-07T03:06:26;22.50;67.20
38746;DHT22;24488;0.000;0.000;2022-12-07T03:11:45;22.50;67.80
38746;DHT22;24488;0.000;0.000;2022-12-07T03:14:15;22.50;67.80
38746;DHT22;24488;0.000;0.000;2022-12-07T03:16:55;22.50;68.20
38746;DHT22;24488;0.000;0.000;2022-12-07T03:19:23;22.60;67.80
38746;DHT22;24488;0.000;0.000;2022-12-07T03:24:21;22.40;67.10
38746;DHT22;24488;0.000;0.000;2022-12-07T03:26:48;22.50;67.90
38746;DHT22;24488;0.000;0.000;2022-12-07T03:29:26;22.60;67.90
38746;DHT22;24488;0.000;0.000;2022-12-07T03:32:37;22.50;67.70
38746;DHT22;24488;0.000;0.000;2022-12-07T03:34:53;22.50;67.80
38746;DHT22;24488;0.000;0.000;2022-12-07T03:37:54;22.50;67.70
38746;DHT22;24488;0.000;0.000;2022-12-07T03:40:39;22.50;67.80
38746;DHT22;24488;0.000;0.000;2022-12-07T03:43:08;22.50;67.80
38746;DHT22;24488;0.000;0.000;2022-12-07T03:45:41;22.50;68.10
38746;DHT22;24488;0.000;0.000;2022-12-07T03:48:42;22.50;67.80
38746;DHT22;24488;0.000;0.000;2022-12-07T03:51:04;22.50;67.80
38746;DHT22;24488;0.000;0.000;2022-12-07T03:53:39;22.60;68.00
38746;DHT22;24488;0.000;0.000;2022-12-07T03:56:09;22.50;67.90
38746;DHT22;24488;0.000;0.000;2022-12-07T03:58:36;22.50;67.90
38746;DHT22;24488;0.000;0.000;2022-12-07T04:01:02;22.50;68.00
38746;DHT22;24488;0.000;0.000;2022-12-07T04:03:28;22.50;67.90
38746;DHT22;24488;0.000;0.000;2022-12-07T04:05:53;22.50;67.90
38746;DHT22;24488;0.000;0.000;2022-12-07T04:08:19;22.50;68.00
38746;DHT22;24488;0.000;0.000;2022-12-07T04:10:45;22.60;68.00
38746;DHT22;24488;0.000;0.000;2022-12-07T04:13:10;22.50;67.90
38746;DHT22;24488;0.000;0.000;2022-12-07T04:15:36;22.70;68.20
38746;DHT22;24488;0.000;0.000;2022-12-07T04:18:01;22.50;67.90
38746;DHT22;24488;0.000;0.000;2022-12-07T04:20:27;22.40;67.30
38746;DHT22;24488;0.000;0.000;2022-12-07T04:22:52;22.60;68.10
38746;DHT22;24488;0.000;0.000;2022-12-07T04:25:18;22.50;67.90
38746;DHT22;24488;0.000;0.000;2022-12-07T04:27:44;22.60;68.00
38746;DHT22;24488;0.000;0.000;2022-12-07T04:30:09;22.50;67.90
38746;DHT22;24488;0.000;0.000;2022-12-07T04:32:35;22.60;67.90
38746;DHT22;24488;0.000;0.000;2022-12-07T04:35:01;22.60;68.00
38746;DHT22;24488;0.000;0.000;2022-12-07T04:39:52;22.40;67.30
38746;DHT22;24488;0.000;0.000;2022-12-07T04:42:18;22.50;67.90
38746;DHT22;24488;0.000;0.000;2022-12-07T04:44:44;22.50;67.60
38746;DHT22;24488;0.000;0.000;2022-12-07T04:47:09;22.40;67.90
38746;DHT22;24488;0.000;0.000;2022-12-07T04:49:35;22.40;67.80
38746;DHT22;24488;0.000;0.000;2022-12-07T04:52:00;22.50;67.70
38746;DHT22;24488;0.000;0.000;2022-12-07T04:54:26;22.50;67.60
38746;DHT22;24488;0.000;0.000;2022-12-07T04:56:52;22.50;67.70
38746;DHT22;24488;0.000;0.000;2022-12-07T04:59:17;22.50;67.90
38746;DHT22;24488;0.000;0.000;2022-12-07T05:01:43;22.40;67.60
38746;DHT22;24488;0.000;0.000;2022-12-07T05:04:09;22.40;67.70
38746;DHT22;24488;0.000;0.000;2022-12-07T05:06:35;22.60;67.80
38746;DHT22;24488;0.000;0.000;2022-12-07T05:11:27;22.30;67.30
38746;DHT22;24488;0.000;0.000;2022-12-07T05:14:15;22.70;68.20
38746;DHT22;24488;0.000;0.000;2022-12-07T05:16:45;22.30;67.90
38746;DHT22;24488;0.000;0.000;2022-12-07T05:21:38;22.30;67.50
38746;DHT22;24488;0.000;0.000;2022-12-07T05:24:05;22.30;68.00
38746;DHT22;24488;0.000;0.000;2022-12-07T05:26:31;22.30;67.90
38746;DHT22;24488;0.000;0.000;2022-12-07T05:28:56;22.50;68.20
38746;DHT22;24488;0.000;0.000;2022-12-07T05:31:23;22.20;68.00
38746;DHT22;24488;0.000;0.000;2022-12-07T05:33:49;22.30;68.00
38746;DHT22;24488;0.000;0.000;2022-12-07T05:36:14;22.40;68.10
38746;DHT22;24488;0.000;0.000;2022-12-07T05:38:40;22.40;68.00
38746;DHT22;24488;0.000;0.000;2022-12-07T05:41:06;22.30;68.00
38746;DHT22;24488;0.000;0.000;2022-12-07T05:43:33;22.20;68.00
38746;DHT22;24488;0.000;0.000;2022-12-07T05:45:58;22.30;68.20
38746;DHT22;24488;0.000;0.000;2022-12-07T05:48:24;22.40;67.90
38746;DHT22;24488;0.000;0.000;2022-12-07T05:50:50;22.30;67.30
38746;DHT22;24488;0.000;0.000;2022-12-07T05:53:16;22.40;67.80
38746;DHT22;24488;0.000;0.000;2022-12-07T05:55:43;22.20;67.80
38746;DHT22;24488;0.000;0.000;2022-12-07T05:58:09;22.40;67.80
38746;DHT22;24488;0.000;0.000;2022-12-07T06:00:56;22.50;67.90
38746;DHT22;24488;0.000;0.000;2022-12-07T06:03:21;22.40;67.70
38746;DHT22;24488;0.000;0.000;2022-12-07T06:08:13;22.40;67.30
38746;DHT22;24488;0.000;0.000;2022-12-07T06:10:40;22.40;68.00
38746;DHT22;24488;0.000;0.000;2022-12-07T06:13:05;22.50;67.90
38746;DHT22;24488;0.000;0.000;2022-12-07T06:15:31;22.70;68.10
38746;DHT22;24488;0.000;0.000;2022-12-07T06:17:56;22.50;67.90
38746;DHT22;24488;0.000;0.000;2022-12-07T06:20:22;22.60;67.90
38746;DHT22;24488;0.000;0.000;2022-12-07T06:22:47;22.60;68.20
38746;DHT22;24488;0.000;0.000;2022-12-07T06:25:13;22.50;67.90
38746;DHT22;24488;0.000;0.000;2022-12-07T06:27:38;22.60;67.90
38746;DHT22;24488;0.000;0.000;2022-12-07T06:30:04;22.50;67.90
38746;DHT22;24488;0.000;0.000;2022-12-07T06:32:35;22.50;67.70
38746;DHT22;24488;0.000;0.000;2022-12-07T06:35:01;22.50;67.70
38746;DHT22;24488;0.000;0.000;2022-12-07T06:37:27;22.60;67.90
38746;DHT22;24488;0.000;0.000;2022-12-07T06:39:53;22.60;68.10
38746;DHT22;24488;0.000;0.000;2022-12-07T06:42:18;22.60;67.90
38746;DHT22;24488;0.000;0.000;2022-12-07T06:44:44;22.70;68.00
38746;DHT22;24488;0.000;0.000;2022-12-07T06:47:09;22.90;68.10
38746;DHT22;24488;0.000;0.000;2022-12-07T06:49:36;22.70;68.00
38746;DHT22;24488;0.000;0.000;2022-12-07T06:52:02;22.60;67.90
38746;DHT22;24488;0.000;0.000;2022-12-07T06:54:27;22.70;67.90
38746;DHT22;24488;0.000;0.000;2022-12-07T06:56:55;22.70;68.00
38746;DHT22;24488;0.000;0.000;2022-12-07T06:59:21;22.80;67.90
38746;DHT22;24488;0.000;0.000;2022-12-07T07:01:46;22.80;68.00
38746;DHT22;24488;0.000;0.000;2022-12-07T07:04:12;22.70;67.80
38746;DHT22;24488;0.000;0.000;2022-12-07T07:06:37;22.70;67.80
38746;DHT22;24488;0.000;0.000;2022-12-07T07:09:03;22.90;67.80
38746;DHT22;24488;0.000;0.000;2022-12-07T07:11:28;22.70;67.80
38746;DHT22;24488;0.000;0.000;2022-12-07T07:13:54;22.80;67.90
38746;DHT22;24488;0.000;0.000;2022-12-07T07:16:22;22.70;67.10
38746;DHT22;24488;0.000;0.000;2022-12-07T07:18:49;22.80;67.80
38746;DHT22;24488;0.000;0.000;2022-12-07T07:21:14;22.80;67.90
38746;DHT22;24488;0.000;0.000;2022-12-07T07:23:40;22.70;67.00
38746;DHT22;24488;0.000;0.000;2022-12-07T07:26:05;22.80;67.80
38746;DHT22;24488;0.000;0.000;2022-12-07T07:30:57;22.80;67.10
38746;DHT22;24488;0.000;0.000;2022-12-07T07:33:22;22.80;67.90
38746;DHT22;24488;0.000;0.000;2022-12-07T07:35:48;23.10;68.00
38746;DHT22;24488;0.000;0.000;2022-12-07T07:38:14;22.90;68.00
38746;DHT22;24488;0.000;0.000;2022-12-07T07:40:39;22.90;67.90
38746;DHT22;24488;0.000;0.000;2022-12-07T07:43:05;22.90;67.80
38746;DHT22;24488;0.000;0.000;2022-12-07T07:45:31;23.10;67.80
38746;DHT22;24488;0.000;0.000;2022-12-07T07:47:57;22.90;67.70
38746;DHT22;24488;0.000;0.000;2022-12-07T07:50:22;23.00;67.70
38746;DHT22;24488;0.000;0.000;2022-12-07T07:52:48;23.00;67.90
38746;DHT22;24488;0.000;0.000;2022-12-07T07:55:14;22.80;67.90
38746;DHT22;24488;0.000;0.000;2022-12-07T07:57:40;22.90;67.60
38746;DHT22;24488;0.000;0.000;2022-12-07T08:02:34;22.80;66.90
38746;DHT22;24488;0.000;0.000;2022-12-07T08:05:00;22.90;67.80
38746;DHT22;24488;0.000;0.000;2022-12-07T08:07:26;22.90;67.70
38746;DHT22;24488;0.000;0.000;2022-12-07T08:09:53;23.00;67.90
38746;DHT22;24488;0.000;0.000;2022-12-07T08:12:18;23.00;67.70
38746;DHT22;24488;0.000;0.000;2022-12-07T08:14:44;22.90;67.80
38746;DHT22;24488;0.000;0.000;2022-12-07T08:17:10;22.80;67.60
38746;DHT22;24488;0.000;0.000;2022-12-07T08:19:35;22.80;67.80
38746;DHT22;24488;0.000;0.000;2022-12-07T08:22:01;22.90;67.70
38746;DHT22;24488;0.000;0.000;2022-12-07T08:26:53;22.80;66.90
38746;DHT22;24488;0.000;0.000;2022-12-07T08:29:18;22.90;67.80
38746;DHT22;24488;0.000;0.000;2022-12-07T08:31:44;22.90;67.70
38746;DHT22;24488;0.000;0.000;2022-12-07T08:34:10;22.90;67.60
38746;DHT22;24488;0.000;0.000;2022-12-07T08:36:36;23.00;67.60
38746;DHT22;24488;0.000;0.000;2022-12-07T08:39:03;23.00;67.60
38746;DHT22;24488;0.000;0.000;2022-12-07T08:41:28;23.00;67.60
38746;DHT22;24488;0.000;0.000;2022-12-07T08:43:54;22.90;67.60
38746;DHT22;24488;0.000;0.000;2022-12-07T08:49:08;23.00;67.50
38746;DHT22;24488;0.000;0.000;2022-12-07T08:51:36;23.00;67.80
38746;DHT22;24488;0.000;0.000;2022-12-07T08:54:03;22.90;67.60
38746;DHT22;24488;0.000;0.000;2022-12-07T08:56:30;22.90;67.60
38746;DHT22;24488;0.000;0.000;2022-12-07T08:58:55;22.90;67.60
38746;DHT22;24488;0.000;0.000;2022-12-07T09:01:22;22.90;67.50
38746;DHT22;24488;0.000;0.000;2022-12-07T09:03:48;23.00;67.70
38746;DHT22;24488;0.000;0.000;2022-12-07T09:06:14;22.50;67.40
38746;DHT22;24488;0.000;0.000;2022-12-07T09:08:41;22.90;67.60
38746;DHT22;24488;0.000;0.000;2022-12-07T09:11:08;22.90;67.60
38746;DHT22;24488;0.000;0.000;2022-12-07T09:13:34;22.90;67.70
38746;DHT22;24488;0.000;0.000;2022-12-07T09:15:59;23.00;67.70
38746;DHT22;24488;0.000;0.000;2022-12-07T09:18:25;23.00;68.00
38746;DHT22;24488;0.000;0.000;2022-12-07T09:20:50;23.70;68.20
38746;DHT22;24488;0.000;0.000;2022-12-07T09:23:16;21.60;66.90
38746;DHT22;24488;0.000;0.000;2022-12-07T09:25:42;22.90;67.50
38746;DHT22;24488;0.000;0.000;2022-12-07T09:28:07;22.90;67.60
38746;DHT22;24488;0.000;0.000;2022-12-07T09:30:33;22.90;67.60
38746;DHT22;24488;0.000;0.000;2022-12-07T09:32:59;22.90;67.70
38746;DHT22;24488;0.000;0.000;2022-12-07T09:35:25;22.90;67.50
38746;DHT22;24488;0.000;0.000;2022-12-07T09:40:17;22.80;66.90
38746;DHT22;24488;0.000;0.000;2022-12-07T09:42:47;22.90;67.50
38746;DHT22;24488;0.000;0.000;2022-12-07T09:45:16;22.90;67.50
38746;DHT22;24488;0.000;0.000;2022-12-07T09:47:50;22.90;67.50
38746;DHT22;24488;0.000;0.000;2022-12-07T09:50:16;22.80;67.50
38746;DHT22;24488;0.000;0.000;2022-12-07T09:52:47;23.00;67.60
38746;DHT22;24488;0.000;0.000;2022-12-07T09:55:14;22.80;67.50
38746;DHT22;24488;0.000;0.000;2022-12-07T09:57:41;23.10;67.70
38746;DHT22;24488;0.000;0.000;2022-12-07T10:00:26;23.00;67.80
38746;DHT22;24488;0.000;0.000;2022-12-07T10:03:00;22.80;67.60
38746;DHT22;24488;0.000;0.000;2022-12-07T10:05:29;22.90;67.40
38746;DHT22;24488;0.000;0.000;2022-12-07T10:07:58;23.10;67.80
38746;DHT22;24488;0.000;0.000;2022-12-07T10:10:25;22.90;67.60
38746;DHT22;24488;0.000;0.000;2022-12-07T10:12:58;23.00;67.60
38746;DHT22;24488;0.000;0.000;2022-12-07T10:15:42;23.00;67.60
38746;DHT22;24488;0.000;0.000;2022-12-07T10:20:46;22.90;67.50
38746;DHT22;24488;0.000;0.000;2022-12-07T10:23:16;23.00;67.60
38746;DHT22;24488;0.000;0.000;2022-12-07T10:25:43;23.00;68.20
38746;DHT22;24488;0.000;0.000;2022-12-07T10:30:51;23.00;67.50
38746;DHT22;24488;0.000;0.000;2022-12-07T10:33:35;23.00;67.60
38746;DHT22;24488;0.000;0.000;2022-12-07T10:36:16;23.00;67.50
38746;DHT22;24488;0.000;0.000;2022-12-07T10:38:44;22.90;67.60
38746;DHT22;24488;0.000;0.000;2022-12-07T10:41:12;22.90;67.50
38746;DHT22;24488;0.000;0.000;2022-12-07T10:43:37;23.10;67.80
38746;DHT22;24488;0.000;0.000;2022-12-07T10:56:53;23.00;67.90
38746;DHT22;24488;0.000;0.000;2022-12-07T10:59:46;22.80;67.50
38746;DHT22;24488;0.000;0.000;2022-12-07T11:02:25;23.00;67.70
38746;DHT22;24488;0.000;0.000;2022-12-07T11:08:02;23.00;67.90
38746;DHT22;24488;0.000;0.000;2022-12-07T11:13:27;23.10;68.20
38746;DHT22;24488;0.000;0.000;2022-12-07T11:15:59;23.10;67.60
38746;DHT22;24488;0.000;0.000;2022-12-07T11:21:21;23.00;67.40
38746;DHT22;24488;0.000;0.000;2022-12-07T11:23:54;23.10;68.00
38746;DHT22;24488;0.000;0.000;2022-12-07T11:26:40;23.00;67.50
38746;DHT22;24488;0.000;0.000;2022-12-07T11:29:26;23.00;67.70
38746;DHT22;24488;0.000;0.000;2022-12-07T11:38:01;23.00;68.30
38746;DHT22;24488;0.000;0.000;2022-12-07T11:40:33;23.10;67.50
38746;DHT22;24488;0.000;0.000;2022-12-07T11:43:03;23.00;67.50
38746;DHT22;24488;0.000;0.000;2022-12-07T11:45:31;23.10;67.70
38746;DHT22;24488;0.000;0.000;2022-12-07T11:50:42;23.00;67.50
38746;DHT22;24488;0.000;0.000;2022-12-07T11:53:15;23.00;67.40
38746;DHT22;24488;0.000;0.000;2022-12-07T11:55:50;23.10;67.40
38746;DHT22;24488;0.000;0.000;2022-12-07T11:58:28;23.00;67.40
38746;DHT22;24488;0.000;0.000;2022-12-07T12:03:47;23.10;67.40
38746;DHT22;24488;0.000;0.000;2022-12-07T12:06:13;23.00;67.40
38746;DHT22;24488;0.000;0.000;2022-12-07T12:08:40;23.00;67.50
38746;DHT22;24488;0.000;0.000;2022-12-07T12:11:18;22.60;67.40
38746;DHT22;24488;0.000;0.000;2022-12-07T12:14:05;23.20;67.50
38746;DHT22;24488;0.000;0.000;2022-12-07T12:22:42;23.60;67.80
38746;DHT22;24488;0.000;0.000;2022-12-07T12:25:19;23.00;67.50
38746;DHT22;24488;0.000;0.000;2022-12-07T12:27:46;23.00;67.40
38746;DHT22;24488;0.000;0.000;2022-12-07T12:32:51;23.20;67.60
38746;DHT22;24488;0.000;0.000;2022-12-07T12:35:28;23.00;67.60
38746;DHT22;24488;0.000;0.000;2022-12-07T12:40:42;23.00;66.90
38746;DHT22;24488;0.000;0.000;2022-12-07T12:51:44;23.00;67.40
38746;DHT22;24488;0.000;0.000;2022-12-07T12:54:15;23.10;67.40
38746;DHT22;24488;0.000;0.000;2022-12-07T13:04:14;23.00;67.00
38746;DHT22;24488;0.000;0.000;2022-12-07T13:06:43;23.10;67.60
38746;DHT22;24488;0.000;0.000;2022-12-07T13:09:19;23.00;66.70
38746;DHT22;24488;0.000;0.000;2022-12-07T13:11:47;23.10;67.50
38746;DHT22;24488;0.000;0.000;2022-12-07T13:17:08;23.00;67.60
38746;DHT22;24488;0.000;0.000;2022-12-07T13:27:47;23.10;67.80
38746;DHT22;24488;0.000;0.000;2022-12-07T13:30:18;23.10;67.90
38746;DHT22;24488;0.000;0.000;2022-12-07T13:32:52;24.40;68.40
38746;DHT22;24488;0.000;0.000;2022-12-07T13:35:28;23.10;67.30
38746;DHT22;24488;0.000;0.000;2022-12-07T13:38:02;23.10;67.40
38746;DHT22;24488;0.000;0.000;2022-12-07T13:40:29;23.10;67.40
38746;DHT22;24488;0.000;0.000;2022-12-07T13:43:02;23.00;67.60
38746;DHT22;24488;0.000;0.000;2022-12-07T13:45:30;23.00;67.40
38746;DHT22;24488;0.000;0.000;2022-12-07T13:48:19;23.10;67.40
38746;DHT22;24488;0.000;0.000;2022-12-07T13:51:04;23.10;67.50
38746;DHT22;24488;0.000;0.000;2022-12-07T13:53:30;23.00;67.50
38746;DHT22;24488;0.000;0.000;2022-12-07T13:55:59;22.90;67.50
38746;DHT22;24488;0.000;0.000;2022-12-07T13:58:27;23.00;67.50
38746;DHT22;24488;0.000;0.000;2022-12-07T14:00:55;23.00;67.60
38746;DHT22;24488;0.000;0.000;2022-12-07T14:03:23;22.90;67.80
38746;DHT22;24488;0.000;0.000;2022-12-07T14:06:06;23.00;67.60
38746;DHT22;24488;0.000;0.000;2022-12-07T14:08:38;22.90;67.40
38746;DHT22;24488;0.000;0.000;2022-12-07T14:11:04;23.10;67.60
38746;DHT22;24488;0.000;0.000;2022-12-07T14:18:47;22.70;67.20
38746;DHT22;24488;0.000;0.000;2022-12-07T14:23:38;23.10;67.60
38746;DHT22;24488;0.000;0.000;2022-12-07T14:26:06;23.10;67.50
38746;DHT22;24488;0.000;0.000;2022-12-07T14:28:44;23.20;67.50
38746;DHT22;24488;0.000;0.000;2022-12-07T14:33:40;23.10;66.80
38746;DHT22;24488;0.000;0.000;2022-12-07T14:36:09;23.20;67.60
38746;DHT22;24488;0.000;0.000;2022-12-07T14:38:36;23.10;67.40
38746;DHT22;24488;0.000;0.000;2022-12-07T14:41:02;23.10;67.50
38746;DHT22;24488;0.000;0.000;2022-12-07T14:46:14;23.10;67.30
38746;DHT22;24488;0.000;0.000;2022-12-07T14:48:39;23.20;67.70
38746;DHT22;24488;0.000;0.000;2022-12-07T14:51:05;23.20;67.60
38746;DHT22;24488;0.000;0.000;2022-12-07T14:53:34;23.40;67.70
38746;DHT22;24488;0.000;0.000;2022-12-07T14:56:01;23.20;67.50
38746;DHT22;24488;0.000;0.000;2022-12-07T14:58:27;23.20;67.50
38746;DHT22;24488;0.000;0.000;2022-12-07T15:00:52;23.10;67.50
38746;DHT22;24488;0.000;0.000;2022-12-07T15:03:18;23.10;67.50
38746;DHT22;24488;0.000;0.000;2022-12-07T15:05:44;23.20;67.50
38746;DHT22;24488;0.000;0.000;2022-12-07T15:08:10;23.20;67.50
38746;DHT22;24488;0.000;0.000;2022-12-07T15:10:37;23.10;67.50
38746;DHT22;24488;0.000;0.000;2022-12-07T15:13:04;23.20;67.60
38746;DHT22;24488;0.000;0.000;2022-12-07T15:15:48;23.10;67.50
38746;DHT22;24488;0.000;0.000;2022-12-07T15:18:15;23.20;68.00
38746;DHT22;24488;0.000;0.000;2022-12-07T15:20:41;23.20;67.50
38746;DHT22;24488;0.000;0.000;2022-12-07T15:23:07;23.20;67.60
38746;DHT22;24488;0.000;0.000;2022-12-07T15:25:32;23.10;67.40
38746;DHT22;24488;0.000;0.000;2022-12-07T15:27:58;23.20;67.60
38746;DHT22;24488;0.000;0.000;2022-12-07T15:30:24;23.10;67.40
38746;DHT22;24488;0.000;0.000;2022-12-07T15:32:52;23.40;67.60
38746;DHT22;24488;0.000;0.000;2022-12-07T15:35:18;23.20;67.40
38746;DHT22;24488;0.000;0.000;2022-12-07T15:37:44;23.10;67.30
38746;DHT22;24488;0.000;0.000;2022-12-07T15:40:10;23.20;67.50
38746;DHT22;24488;0.000;0.000;2022-12-07T15:45:03;23.00;66.70
38746;DHT22;24488;0.000;0.000;2022-12-07T15:47:30;23.10;67.50
38746;DHT22;24488;0.000;0.000;2022-12-07T15:50:06;23.10;67.30
38746;DHT22;24488;0.000;0.000;2022-12-07T15:52:35;23.10;67.10
38746;DHT22;24488;0.000;0.000;2022-12-07T15:55:01;23.20;67.60
38746;DHT22;24488;0.000;0.000;2022-12-07T15:57:31;23.10;67.40
38746;DHT22;24488;0.000;0.000;2022-12-07T16:02:23;23.10;66.80
38746;DHT22;24488;0.000;0.000;2022-12-07T16:04:49;23.10;67.30
38746;DHT22;24488;0.000;0.000;2022-12-07T16:07:15;23.20;67.50
38746;DHT22;24488;0.000;0.000;2022-12-07T16:09:42;23.10;67.40
38746;DHT22;24488;0.000;0.000;2022-12-07T16:14:35;22.90;67.70
38746;DHT22;24488;0.000;0.000;2022-12-07T16:17:00;23.00;67.40
38746;DHT22;24488;0.000;0.000;2022-12-07T16:19:26;23.10;67.30
38746;DHT22;24488;0.000;0.000;2022-12-07T16:21:52;23.10;67.40
38746;DHT22;24488;0.000;0.000;2022-12-07T16:24:17;23.10;67.40
38746;DHT22;24488;0.000;0.000;2022-12-07T16:26:43;23.10;67.40
38746;DHT22;24488;0.000;0.000;2022-12-07T16:29:12;23.30;67.40
38746;DHT22;24488;0.000;0.000;2022-12-07T16:31:38;23.10;67.20
38746;DHT22;24488;0.000;0.000;2022-12-07T16:34:03;23.10;67.30
38746;DHT22;24488;0.000;0.000;2022-12-07T16:36:29;23.20;67.50
38746;DHT22;24488;0.000;0.000;2022-12-07T16:38:55;23.00;67.60
38746;DHT22;24488;0.000;0.000;2022-12-07T16:41:20;23.00;67.40
38746;DHT22;24488;0.000;0.000;2022-12-07T16:43:46;23.10;67.40
38746;DHT22;24488;0.000;0.000;2022-12-07T16:46:12;23.10;67.40
38746;DHT22;24488;0.000;0.000;2022-12-07T16:48:38;23.20;67.50
38746;DHT22;24488;0.000;0.000;2022-12-07T16:51:05;23.10;67.30
38746;DHT22;24488;0.000;0.000;2022-12-07T16:53:31;23.10;67.30
38746;DHT22;24488;0.000;0.000;2022-12-07T16:55:57;23.00;66.60
38746;DHT22;24488;0.000;0.000;2022-12-07T16:58:22;23.10;67.50
38746;DHT22;24488;0.000;0.000;2022-12-07T17:00:48;23.10;67.50
38746;DHT22;24488;0.000;0.000;2022-12-07T17:03:14;23.20;67.70
38746;DHT22;24488;0.000;0.000;2022-12-07T17:05:40;23.20;67.30
38746;DHT22;24488;0.000;0.000;2022-12-07T17:08:07;23.10;67.20
38746;DHT22;24488;0.000;0.000;2022-12-07T17:10:34;23.20;67.40
38746;DHT22;24488;0.000;0.000;2022-12-07T17:13:02;23.10;67.30
38746;DHT22;24488;0.000;0.000;2022-12-07T17:16:01;23.00;67.20
38746;DHT22;24488;0.000;0.000;2022-12-07T17:18:32;23.10;67.50
38746;DHT22;24488;0.000;0.000;2022-12-07T17:21:03;23.00;67.20
38746;DHT22;24488;0.000;0.000;2022-12-07T17:23:32;23.00;67.30
38746;DHT22;24488;0.000;0.000;2022-12-07T17:26:09;23.00;67.20
38746;DHT22;24488;0.000;0.000;2022-12-07T17:28:36;23.00;67.10
38746;DHT22;24488;0.000;0.000;2022-12-07T17:31:05;23.00;67.20
38746;DHT22;24488;0.000;0.000;2022-12-07T17:33:33;23.10;67.30
38746;DHT22;24488;0.000;0.000;2022-12-07T17:35:59;23.10;67.30
38746;DHT22;24488;0.000;0.000;2022-12-07T17:38:25;23.10;67.20
38746;DHT22;24488;0.000;0.000;2022-12-07T17:40:50;23.10;67.30
38746;DHT22;24488;0.000;0.000;2022-12-07T17:43:16;23.20;67.30
38746;DHT22;24488;0.000;0.000;2022-12-07T17:45:41;23.20;67.50
38746;DHT22;24488;0.000;0.000;2022-12-07T17:48:07;23.30;67.30
38746;DHT22;24488;0.000;0.000;2022-12-07T17:50:33;23.10;67.20
38746;DHT22;24488;0.000;0.000;2022-12-07T17:53:17;22.70;66.90
38746;DHT22;24488;0.000;0.000;2022-12-07T17:55:43;23.20;67.30
38746;DHT22;24488;0.000;0.000;2022-12-07T18:00:34;23.10;66.60
38746;DHT22;24488;0.000;0.000;2022-12-07T18:03:04;23.00;67.10
38746;DHT22;24488;0.000;0.000;2022-12-07T18:05:31;23.20;67.10
38746;DHT22;24488;0.000;0.000;2022-12-07T18:07:57;23.00;67.10
38746;DHT22;24488;0.000;0.000;2022-12-07T18:10:23;23.10;67.30
38746;DHT22;24488;0.000;0.000;2022-12-07T18:12:48;23.10;67.20
38746;DHT22;24488;0.000;0.000;2022-12-07T18:15:14;23.10;67.20
38746;DHT22;24488;0.000;0.000;2022-12-07T18:17:40;23.00;67.30
38746;DHT22;24488;0.000;0.000;2022-12-07T18:20:06;23.10;67.20
38746;DHT22;24488;0.000;0.000;2022-12-07T18:22:32;23.10;67.10
38746;DHT22;24488;0.000;0.000;2022-12-07T18:24:58;23.10;67.20
38746;DHT22;24488;0.000;0.000;2022-12-07T18:27:23;23.00;67.20
38746;DHT22;24488;0.000;0.000;2022-12-07T18:29:49;23.10;67.30
38746;DHT22;24488;0.000;0.000;2022-12-07T18:32:14;23.20;67.20
38746;DHT22;24488;0.000;0.000;2022-12-07T18:34:40;23.10;67.30
38746;DHT22;24488;0.000;0.000;2022-12-07T18:39:31;23.10;66.60
38746;DHT22;24488;0.000;0.000;2022-12-07T18:41:57;23.10;67.10